createdAt,value
2019-01-06T00:01:53.383Z,63.90
2019-01-06T00:04:40.963Z,64.20
2019-01-06T00:07:42.718Z,64.10
2019-01-06T00:10:28.530Z,63.00
2019-01-06T00:13:14.242Z,63.40
2019-01-06T00:16:01.948Z,62.10
2019-01-06T00:19:09.154Z,62.40
2019-01-06T00:25:00.546Z,62.90
2019-01-06T00:27:48.040Z,62.30
2019-01-06T00:30:48.322Z,61.70
2019-01-06T00:33:56.061Z,62.00
2019-01-06T00:37:02.229Z,62.30
2019-01-06T00:40:00.249Z,64.50
2019-01-06T00:42:55.183Z,64.30
2019-01-06T00:45:44.995Z,64.20
2019-01-06T00:48:32.495Z,64.10
2019-01-06T00:51:39.679Z,63.60
2019-01-06T00:54:39.962Z,64.10
2019-01-06T00:57:30.688Z,64.70
2019-01-06T01:00:24.241Z,64.00
2019-01-06T01:03:31.386Z,63.20
2019-01-06T01:06:31.494Z,63.00
2019-01-06T01:09:58.172Z,62.60
2019-01-06T01:13:00.903Z,62.70
2019-01-06T01:16:01.120Z,63.10
2019-01-06T01:19:08.051Z,63.80
2019-01-06T01:22:07.785Z,63.10
2019-01-06T01:25:14.965Z,62.60
2019-01-06T01:28:14.773Z,62.60
2019-01-06T01:31:17.913Z,62.10
2019-01-06T01:34:25.261Z,62.50
2019-01-06T01:37:25.565Z,62.20
2019-01-06T01:40:32.544Z,62.30
2019-01-06T01:43:26.554Z,62.40
2019-01-06T01:46:29.345Z,62.60
2019-01-06T01:49:22.935Z,63.00
2019-01-06T01:52:30.770Z,64.10
2019-01-06T01:55:31.067Z,64.60
2019-01-06T01:58:38.022Z,65.00
2019-01-06T02:04:44.414Z,64.30
2019-01-06T02:07:51.569Z,64.30
2019-01-06T02:11:01.631Z,64.20
2019-01-06T02:14:02.067Z,64.00
2019-01-06T02:16:59.306Z,63.00
2019-01-06T02:19:47.157Z,63.00
2019-01-06T02:22:48.256Z,62.80
2019-01-06T02:25:55.207Z,63.10
2019-01-06T02:29:03.833Z,65.20
2019-01-06T02:32:03.986Z,65.40
2019-01-06T02:35:11.012Z,65.80
2019-01-06T02:38:11.578Z,66.00
2019-01-06T02:41:18.739Z,65.30
2019-01-06T02:44:22.653Z,65.60
2019-01-06T02:47:31.526Z,65.50
2019-01-06T02:50:32.005Z,65.60
2019-01-06T02:53:38.956Z,65.20
2019-01-06T02:56:26.440Z,65.30
2019-01-06T02:59:33.454Z,64.90
2019-01-06T03:02:26.457Z,65.40
2019-01-06T03:05:29.241Z,65.30
2019-01-06T03:08:19.271Z,65.20
2019-01-06T03:11:06.789Z,64.30
2019-01-06T03:16:50.295Z,64.30
2019-01-06T03:19:52.688Z,64.20
2019-01-06T03:22:40.212Z,64.40
2019-01-06T03:25:37.879Z,64.10
2019-01-06T03:28:23.580Z,64.30
2019-01-06T03:31:11.274Z,64.00
2019-01-06T03:33:58.790Z,64.40
2019-01-06T03:36:46.302Z,64.10
2019-01-06T03:43:08.115Z,64.40
2019-01-06T03:45:57.693Z,64.20
2019-01-06T03:48:51.622Z,64.60
2019-01-06T03:51:48.252Z,64.60
2019-01-06T03:54:35.940Z,63.70
2019-01-06T03:57:43.467Z,64.70
2019-01-06T04:00:41.764Z,65.70
2019-01-06T04:03:27.984Z,65.70
2019-01-06T04:06:15.446Z,65.70
2019-01-06T04:09:09.802Z,66.60
2019-01-06T04:12:16.952Z,67.30
2019-01-06T04:15:17.363Z,67.10
2019-01-06T04:18:24.498Z,66.30
2019-01-06T04:21:25.078Z,66.10
2019-01-06T04:24:32.799Z,66.40
2019-01-06T04:27:36.314Z,65.60
2019-01-06T04:30:36.992Z,65.00
2019-01-06T04:33:24.504Z,64.70
2019-01-06T04:36:25.188Z,64.00
2019-01-06T04:39:32.158Z,64.00
2019-01-06T04:42:32.848Z,63.50
2019-01-06T04:45:35.518Z,63.50
2019-01-06T04:48:42.878Z,63.40
2019-01-06T04:51:42.717Z,63.70
2019-01-06T04:54:38.346Z,63.90
2019-01-06T04:57:26.073Z,64.20
2019-01-06T05:00:26.342Z,63.80
2019-01-06T05:03:33.665Z,63.80
2019-01-06T05:06:32.053Z,64.00
2019-01-06T05:09:35.466Z,64.10
2019-01-06T05:12:35.455Z,64.90
2019-01-06T05:15:22.982Z,66.00
2019-01-06T05:18:29.912Z,66.00
2019-01-06T05:21:17.904Z,66.00
2019-01-06T05:24:25.093Z,67.00
2019-01-06T05:27:12.785Z,66.60
2019-01-06T05:30:12.906Z,66.70
2019-01-06T05:33:13.589Z,66.50
2019-01-06T05:39:09.917Z,66.20
2019-01-06T05:41:49.986Z,65.60
2019-01-06T05:44:37.453Z,65.50
2019-01-06T05:47:25.079Z,64.80
2019-01-06T05:50:28.342Z,65.20
2019-01-06T05:53:28.878Z,65.20
2019-01-06T05:56:29.429Z,64.90
2019-01-06T05:59:29.172Z,64.60
2019-01-06T06:02:36.940Z,65.50
2019-01-06T06:05:24.406Z,65.70
2019-01-06T06:08:14.676Z,65.30
2019-01-06T06:11:02.132Z,65.10
2019-01-06T06:13:49.761Z,65.00
2019-01-06T06:16:53.366Z,65.30
2019-01-06T06:20:00.532Z,64.90
2019-01-06T06:23:04.465Z,64.70
2019-01-06T06:26:07.999Z,65.30
2019-01-06T06:29:08.022Z,64.40
2019-01-06T06:32:15.784Z,65.00
2019-01-06T06:35:16.583Z,65.00
2019-01-06T06:38:23.727Z,65.60
2019-01-06T06:41:24.588Z,66.00
2019-01-06T06:44:31.759Z,66.10
2019-01-06T06:47:38.729Z,65.60
2019-01-06T06:50:46.319Z,65.30
2019-01-06T06:53:41.376Z,66.20
2019-01-06T06:56:48.933Z,67.30
2019-01-06T06:59:51.151Z,67.50
2019-01-06T07:03:25.968Z,67.60
2019-01-06T07:06:27.494Z,69.20
2019-01-06T07:09:05.614Z,70.30
2019-01-06T07:11:53.780Z,70.50
2019-01-06T07:14:47.749Z,70.50
2019-01-06T07:18:14.353Z,70.30
2019-01-06T07:21:05.844Z,70.50
2019-01-06T07:23:53.513Z,70.80
2019-01-06T07:26:42.077Z,70.70
2019-01-06T07:29:38.472Z,70.50
2019-01-06T07:32:31.617Z,70.60
2019-01-06T07:35:17.659Z,70.90
2019-01-06T07:38:23.426Z,70.90
2019-01-06T07:41:19.934Z,70.80
2019-01-06T07:47:25.890Z,70.30
2019-01-06T07:50:33.024Z,70.40
2019-01-06T07:56:47.558Z,70.10
2019-01-06T07:59:50.579Z,70.50
2019-01-06T08:02:56.479Z,70.50
2019-01-06T08:06:00.487Z,70.40
2019-01-06T08:09:07.672Z,70.60
2019-01-06T08:11:58.989Z,70.50
2019-01-06T08:15:06.290Z,70.30
2019-01-06T08:18:07.753Z,70.20
2019-01-06T08:21:15.704Z,70.40
2019-01-06T08:27:26.102Z,70.10
2019-01-06T08:30:14.313Z,69.40
2019-01-06T08:33:01.834Z,69.70
2019-01-06T08:35:44.298Z,69.60
2019-01-06T08:41:43.486Z,69.70
2019-01-06T08:44:31.377Z,69.80
2019-01-06T08:47:21.669Z,69.90
2019-01-06T08:50:23.859Z,70.40
2019-01-06T08:53:31.046Z,71.20
2019-01-06T08:56:18.708Z,70.90
2019-01-06T08:59:06.253Z,70.60
2019-01-06T09:01:56.437Z,70.80
2019-01-06T09:04:50.111Z,70.70
2019-01-06T09:07:32.987Z,70.90
2019-01-06T09:10:20.700Z,70.40
2019-01-06T09:13:21.419Z,69.80
2019-01-06T09:16:28.636Z,70.00
2019-01-06T09:19:28.711Z,70.40
2019-01-06T09:22:37.114Z,69.50
2019-01-06T09:25:24.999Z,70.30
2019-01-06T09:28:32.185Z,69.90
2019-01-06T09:31:38.320Z,69.80
2019-01-06T09:34:45.349Z,70.60
2019-01-06T09:40:51.874Z,70.30
2019-01-06T09:43:39.733Z,70.20
2019-01-06T09:46:30.513Z,69.60
2019-01-06T09:49:37.882Z,69.60
2019-01-06T09:52:34.241Z,69.20
2019-01-06T09:55:22.052Z,69.40
2019-01-06T09:58:29.323Z,70.30
2019-01-06T10:01:32.272Z,69.50
2019-01-06T10:04:20.540Z,69.10
2019-01-06T10:07:21.799Z,68.20
2019-01-06T10:10:28.957Z,68.20
2019-01-06T10:13:29.552Z,68.80
2019-01-06T10:16:40.141Z,69.90
2019-01-06T10:19:42.038Z,68.50
2019-01-06T10:22:49.835Z,68.90
2019-01-06T10:25:49.839Z,68.20
2019-01-06T10:28:57.168Z,68.70
2019-01-06T10:35:05.648Z,67.80
2019-01-06T10:37:53.476Z,68.30
2019-01-06T10:40:46.992Z,68.90
2019-01-06T10:43:47.754Z,68.90
2019-01-06T10:46:55.423Z,69.10
2019-01-06T10:49:42.952Z,69.30
2019-01-06T10:55:41.367Z,68.40
2019-01-06T10:58:29.907Z,67.70
2019-01-06T11:01:29.929Z,67.50
2019-01-06T11:04:17.962Z,66.20
2019-01-06T11:07:21.539Z,65.60
2019-01-06T11:10:10.115Z,66.50
2019-01-06T11:12:56.328Z,66.80
2019-01-06T11:15:43.631Z,66.60
2019-01-06T11:18:31.359Z,66.80
2019-01-06T11:21:19.377Z,65.50
2019-01-06T11:24:32.077Z,65.70
2019-01-06T11:27:19.782Z,64.80
2019-01-06T11:30:07.351Z,64.40
2019-01-06T11:33:07.540Z,64.20
2019-01-06T11:36:14.613Z,64.10
2019-01-06T11:39:15.052Z,63.00
2019-01-06T11:42:02.620Z,63.70
2019-01-06T11:45:03.799Z,63.50
2019-01-06T11:47:51.416Z,64.20
2019-01-06T11:50:40.083Z,64.70
2019-01-06T11:56:34.324Z,64.90
2019-01-06T11:59:22.682Z,64.60
2019-01-06T12:02:29.455Z,64.00
2019-01-06T12:05:17.062Z,62.70
2019-01-06T12:07:56.415Z,63.20
2019-01-06T12:10:44.533Z,62.90
2019-01-06T12:13:37.510Z,63.20
2019-01-06T12:16:25.519Z,63.60
2019-01-06T12:19:33.650Z,62.90
2019-01-06T12:22:34.219Z,62.00
2019-01-06T12:25:34.177Z,61.70
2019-01-06T12:28:22.253Z,61.60
2019-01-06T12:31:10.218Z,62.60
2019-01-06T12:34:21.056Z,62.20
2019-01-06T12:40:24.235Z,62.50
2019-01-06T12:43:24.741Z,63.50
2019-01-06T12:46:14.260Z,62.50
2019-01-06T12:49:21.606Z,62.60
2019-01-06T12:52:24.039Z,62.60
2019-01-06T12:55:27.969Z,62.50
2019-01-06T12:58:38.298Z,62.90
2019-01-06T13:01:39.198Z,62.10
2019-01-06T13:04:46.547Z,62.40
2019-01-06T13:10:54.974Z,62.70
2019-01-06T13:13:56.288Z,63.30
2019-01-06T13:17:03.987Z,62.90
2019-01-06T13:19:51.675Z,63.90
2019-01-06T13:22:39.540Z,64.40
2019-01-06T13:25:26.370Z,64.90
2019-01-06T13:28:28.295Z,64.80
2019-01-06T13:31:29.475Z,64.40
2019-01-06T13:34:39.043Z,63.50
2019-01-06T13:37:39.573Z,64.70
2019-01-06T13:40:43.036Z,64.60
2019-01-06T13:43:48.347Z,64.70
2019-01-06T13:46:48.428Z,65.10
2019-01-06T13:49:55.625Z,64.80
2019-01-06T13:52:56.418Z,65.00
2019-01-06T13:55:56.408Z,65.40
2019-01-06T13:59:03.597Z,64.10
2019-01-06T14:02:04.406Z,64.10
2019-01-06T14:05:01.088Z,64.10
2019-01-06T14:08:01.469Z,64.10
2019-01-06T14:11:09.350Z,63.80
2019-01-06T14:13:57.281Z,64.10
2019-01-06T14:17:04.608Z,63.40
2019-01-06T14:19:52.300Z,64.00
2019-01-06T14:22:40.154Z,62.80
2019-01-06T14:25:27.959Z,62.90
2019-01-06T14:28:35.635Z,63.60
2019-01-06T14:31:23.578Z,63.80
2019-01-06T14:34:32.416Z,64.50
2019-01-06T14:37:38.937Z,64.40
2019-01-06T14:40:40.163Z,64.70
2019-01-06T14:43:32.483Z,65.20
2019-01-06T14:46:45.445Z,65.20
2019-01-06T14:53:01.478Z,65.30
2019-01-06T14:56:11.244Z,65.40
2019-01-06T14:59:14.711Z,65.60
2019-01-06T15:02:10.012Z,65.90
2019-01-06T15:05:19.507Z,67.30
2019-01-06T15:08:19.330Z,67.20
2019-01-06T15:11:27.019Z,67.50
2019-01-06T15:17:04.155Z,67.70
2019-01-06T15:19:52.324Z,67.70
2019-01-06T15:25:42.247Z,67.70
2019-01-06T15:28:30.032Z,67.70
2019-01-06T15:31:35.924Z,67.60
2019-01-06T15:34:43.388Z,67.30
2019-01-06T15:37:45.807Z,67.50
2019-01-06T15:40:46.344Z,67.60
2019-01-06T15:43:46.517Z,67.70
2019-01-06T15:49:40.533Z,67.80
2019-01-06T15:52:46.749Z,68.70
2019-01-06T15:55:53.333Z,69.10
2019-01-06T15:58:40.972Z,69.30
2019-01-06T16:01:24.318Z,68.50
2019-01-06T16:04:29.110Z,67.60
2019-01-06T16:07:37.359Z,67.20
2019-01-06T16:10:41.737Z,67.10
2019-01-06T16:13:57.472Z,66.90
2019-01-06T16:17:05.612Z,66.70
2019-01-06T16:20:08.665Z,66.70
2019-01-06T16:23:19.793Z,66.90
2019-01-06T16:26:19.129Z,65.70
2019-01-06T16:29:09.318Z,66.20
2019-01-06T16:32:17.243Z,66.50
2019-01-06T16:35:24.761Z,66.10
2019-01-06T16:41:35.470Z,65.90
2019-01-06T16:44:24.943Z,66.00
2019-01-06T16:50:14.176Z,65.90
2019-01-06T16:56:19.570Z,66.00
2019-01-06T16:59:26.954Z,64.40
2019-01-06T17:02:23.388Z,64.20
2019-01-06T17:05:10.189Z,63.80
2019-01-06T17:10:51.335Z,63.70
2019-01-06T17:13:43.030Z,62.60
2019-01-06T17:16:44.656Z,61.90
2019-01-06T17:19:56.467Z,61.90
2019-01-06T17:22:53.216Z,62.30
2019-01-06T17:25:46.612Z,62.00
2019-01-06T17:28:32.981Z,60.80
2019-01-06T17:31:11.458Z,61.20
2019-01-06T17:33:58.037Z,61.30
2019-01-06T17:39:42.859Z,62.00
2019-01-06T17:42:42.402Z,61.10
2019-01-06T17:45:49.804Z,62.00
2019-01-06T17:48:51.374Z,62.00
2019-01-06T17:54:45.570Z,61.80
2019-01-06T17:57:54.219Z,62.10
2019-01-06T18:01:20.447Z,61.80
2019-01-06T18:04:17.999Z,61.20
2019-01-06T18:07:24.692Z,61.40
2019-01-06T18:10:25.728Z,61.60
2019-01-06T18:13:33.655Z,61.00
2019-01-06T18:16:40.491Z,61.00
2019-01-06T18:19:41.795Z,61.20
2019-01-06T18:25:55.558Z,61.60
2019-01-06T18:29:04.843Z,60.80
2019-01-06T18:32:11.667Z,61.00
2019-01-06T18:34:57.441Z,61.00
2019-01-06T18:38:04.880Z,60.40
2019-01-06T18:41:12.596Z,60.40
2019-01-06T18:44:13.373Z,60.20
2019-01-06T18:47:26.073Z,60.10
2019-01-06T18:50:26.361Z,60.00
2019-01-06T18:53:26.093Z,59.00
2019-01-06T18:56:34.084Z,59.50
2019-01-06T18:59:22.113Z,58.80
2019-01-06T19:02:29.524Z,59.00
2019-01-06T19:08:27.413Z,58.60
2019-01-06T19:11:23.796Z,58.10
2019-01-06T19:14:13.603Z,58.30
2019-01-06T19:17:01.257Z,58.10
2019-01-06T19:19:50.522Z,58.50
2019-01-06T19:23:02.019Z,59.30
2019-01-06T19:25:50.556Z,59.60
2019-01-06T19:28:57.106Z,59.90
2019-01-06T19:32:03.415Z,59.20
2019-01-06T19:34:55.088Z,60.20
2019-01-06T19:37:48.506Z,59.20
2019-01-06T19:40:36.733Z,59.60
2019-01-06T19:43:39.128Z,59.10
2019-01-06T19:46:46.361Z,59.80
2019-01-06T19:49:34.092Z,60.70
2019-01-06T19:52:41.799Z,60.70
2019-01-06T19:55:29.512Z,59.90
2019-01-06T19:58:17.328Z,60.70
2019-01-06T20:01:05.128Z,59.80
2019-01-06T20:04:07.976Z,60.00
2019-01-06T20:07:15.385Z,60.20
2019-01-06T20:10:17.060Z,60.30
2019-01-06T20:13:24.510Z,59.60
2019-01-06T20:16:29.447Z,59.00
2019-01-06T20:19:20.398Z,59.50
2019-01-06T20:22:27.557Z,59.10
2019-01-06T20:25:28.840Z,59.10
2019-01-06T20:28:16.802Z,59.20
2019-01-06T20:31:24.238Z,58.80
2019-01-06T20:34:24.189Z,59.80
2019-01-06T20:37:31.564Z,59.70
2019-01-06T20:40:19.303Z,58.60
2019-01-06T20:46:26.093Z,58.20
2019-01-06T20:49:13.694Z,58.70
2019-01-06T20:52:14.230Z,59.00
2019-01-06T20:55:02.255Z,59.30
2019-01-06T20:58:11.412Z,59.00
2019-01-06T21:01:18.766Z,58.70
2019-01-06T21:04:25.250Z,58.00
2019-01-06T21:07:32.862Z,58.30
2019-01-06T21:10:39.430Z,58.30
2019-01-06T21:13:46.482Z,58.50
2019-01-06T21:16:34.195Z,58.70
2019-01-06T21:19:22.035Z,59.20
2019-01-06T21:22:08.211Z,58.70
2019-01-06T21:24:55.286Z,59.20
2019-01-06T21:27:45.718Z,59.60
2019-01-06T21:30:33.455Z,59.20
2019-01-06T21:33:21.224Z,59.20
2019-01-06T21:36:21.289Z,59.60
2019-01-06T21:39:28.604Z,60.40
2019-01-06T21:42:16.231Z,60.60
2019-01-06T21:45:02.335Z,60.40
2019-01-06T21:47:48.381Z,60.30
2019-01-06T21:50:28.933Z,60.40
2019-01-06T21:53:16.083Z,60.20
2019-01-06T21:56:03.800Z,59.80
2019-01-06T21:59:11.086Z,60.10
2019-01-06T22:02:17.067Z,60.10
2019-01-06T22:05:24.439Z,60.70
2019-01-06T22:08:25.363Z,60.40
2019-01-06T22:11:26.417Z,60.40
2019-01-06T22:14:36.223Z,60.20
2019-01-06T22:17:40.243Z,60.20
2019-01-06T22:20:40.451Z,60.40
2019-01-06T22:23:47.519Z,61.40
2019-01-06T22:26:48.678Z,61.30
2019-01-06T22:29:55.837Z,61.20
2019-01-06T22:32:56.798Z,60.90
2019-01-06T22:35:57.633Z,61.60
2019-01-06T22:38:52.332Z,62.20
2019-01-06T22:41:39.889Z,62.50
2019-01-06T22:44:46.939Z,62.80
2019-01-06T22:47:46.978Z,62.10
2019-01-06T22:50:23.007Z,62.50
2019-01-06T22:53:24.816Z,62.80
2019-01-06T22:56:18.405Z,63.30
2019-01-06T22:59:05.936Z,63.20
2019-01-06T23:01:53.646Z,63.60
2019-01-06T23:05:00.790Z,63.60
2019-01-06T23:08:02.468Z,63.60
2019-01-06T23:11:09.793Z,63.30
2019-01-06T23:17:05.659Z,63.10
2019-01-06T23:19:51.949Z,62.80
2019-01-06T23:22:39.702Z,63.50
2019-01-06T23:25:43.757Z,64.30
2019-01-06T23:28:31.330Z,64.00
2019-01-06T23:31:21.382Z,64.70
2019-01-06T23:34:28.604Z,64.60
2019-01-06T23:37:24.164Z,64.20
2019-01-06T23:40:31.601Z,63.90
2019-01-06T23:43:35.185Z,63.70
2019-01-06T23:46:42.160Z,64.20
2019-01-06T23:49:43.667Z,63.50
2019-01-06T23:52:31.382Z,63.50
2019-01-06T23:55:31.672Z,62.50
2019-01-06T23:58:19.315Z,63.60
